Time;durP1;ratioP1;P1;durP2;ratioP2;P2;SDS_P1;SDS_P2;PMS_P1;PMS_P2;Temp;Humidity;BMP_temperature;BMP_pressure;BME280_temperature;BME280_humidity;BME280_pressure;Samples;Min_cycle;Max_cycle;Signal;HPM_P1;HPM_P2
2022/08/19 00:02:04;;;;;;;17.40;4.30;;;;;;;21.81;43.54;100915.25;4975791;28;20724;-76
2022/08/19 00:04:35;;;;;;;14.43;3.75;;;;;;;21.72;43.88;100919.56;4975801;28;20437;-76
2022/08/19 00:07:05;;;;;;;16.27;3.72;;;;;;;21.71;43.65;100912.41;4975428;28;20029;-76
2022/08/19 00:09:31;;;;;;;15.88;4.30;;;;;;;21.74;43.66;100915.19;4975296;28;20397;-76
2022/08/19 00:11:57;;;;;;;18.58;3.97;;;;;;;21.72;43.81;100917.56;4975582;28;20030;-76
2022/08/19 00:14:25;;;;;;;12.05;3.38;;;;;;;21.71;43.83;100920.75;4975542;28;20026;-76
2022/08/19 00:16:53;;;;;;;11.80;4.25;;;;;;;21.64;43.98;100929.03;4975540;28;20027;-80
2022/08/19 00:19:20;;;;;;;14.13;3.92;;;;;;;21.63;43.88;100924.66;4975098;28;20031;-75
2022/08/19 00:21:46;;;;;;;11.15;3.85;;;;;;;21.70;43.78;100933.06;4974640;28;20035;-76
2022/08/19 00:24:14;;;;;;;15.15;3.53;;;;;;;21.81;43.38;100926.38;4975433;28;20406;-76
2022/08/19 00:26:41;;;;;;;15.30;4.03;;;;;;;21.70;43.99;100925.50;4975339;28;20058;-76
2022/08/19 00:29:09;;;;;;;19.98;4.22;;;;;;;21.58;43.94;100929.34;4974974;28;20042;-76
2022/08/19 00:31:35;;;;;;;13.93;5.28;;;;;;;21.54;44.03;100925.75;4975055;28;20051;-76
2022/08/19 00:34:01;;;;;;;10.52;4.18;;;;;;;21.62;43.98;100929.41;4974018;28;20026;-76
2022/08/19 00:36:28;;;;;;;14.10;4.15;;;;;;;21.48;44.10;100935.63;4974297;28;20446;-76
2022/08/19 00:38:53;;;;;;;14.20;4.20;;;;;;;21.59;43.86;100927.38;4973777;28;20489;-75
2022/08/19 00:41:23;;;;;;;17.48;4.07;;;;;;;21.67;43.77;100934.59;4973839;28;20034;-76
2022/08/19 00:44:10;;;;;;;17.73;5.27;;;;;;;21.42;44.38;100934.38;4974831;28;20485;-76
2022/08/19 00:46:38;;;;;;;13.20;3.78;;;;;;;21.35;44.59;100937.06;4973461;28;20285;-76
2022/08/19 00:49:28;;;;;;;11.77;4.43;;;;;;;21.38;44.51;100943.84;4974905;28;20039;-76
2022/08/19 00:52:01;;;;;;;18.17;5.72;;;;;;;21.44;44.15;100942.31;4974491;28;20065;-76
2022/08/19 00:54:28;;;;;;;16.63;4.93;;;;;;;21.37;44.29;100953.38;4974864;28;20026;-76
2022/08/19 00:56:53;;;;;;;18.10;4.65;;;;;;;21.35;44.21;100947.41;4974488;28;20053;-76
2022/08/19 00:59:20;;;;;;;18.95;4.18;;;;;;;21.32;44.29;100947.00;4974797;28;20094;-76
2022/08/19 01:01:46;;;;;;;19.58;4.57;;;;;;;21.39;44.21;100942.69;4974732;28;20385;-80
2022/08/19 01:04:12;;;;;;;16.13;3.47;;;;;;;21.38;44.15;100941.84;4974146;28;20030;-76
2022/08/19 01:06:41;;;;;;;15.45;4.70;;;;;;;21.31;44.12;100937.06;4973811;28;20390;-76
2022/08/19 01:09:07;;;;;;;16.90;3.70;;;;;;;21.34;44.13;100941.03;4974273;28;20147;-76
2022/08/19 01:11:36;;;;;;;13.73;4.05;;;;;;;21.24;44.25;100936.94;4974457;28;20082;-76
2022/08/19 01:14:03;;;;;;;15.13;4.20;;;;;;;21.18;44.53;100934.88;4974217;28;20031;-76
2022/08/19 01:16:31;;;;;;;19.92;5.60;;;;;;;21.25;44.19;100932.97;4974258;28;20648;-76
2022/08/19 01:18:56;;;;;;;15.00;4.38;;;;;;;21.22;44.56;100938.50;4974335;28;20027;-76
2022/08/19 01:21:34;;;;;;;17.77;4.53;;;;;;;21.33;44.17;100931.09;4973739;28;20153;-76
2022/08/19 01:24:00;;;;;;;16.25;4.30;;;;;;;21.32;44.11;100932.28;4974330;28;20530;-76
2022/08/19 01:26:27;;;;;;;16.50;4.32;;;;;;;21.11;44.76;100923.69;4974036;28;20110;-76
2022/08/19 01:28:56;;;;;;;13.63;3.55;;;;;;;21.09;44.80;100928.84;4974087;28;20046;-76
2022/08/19 01:31:25;;;;;;;14.10;3.22;;;;;;;21.07;45.03;100934.75;4974046;28;20047;-76
2022/08/19 01:33:52;;;;;;;16.52;4.38;;;;;;;20.97;45.27;100932.66;4974138;28;20081;-76
2022/08/19 01:36:41;;;;;;;13.57;5.20;;;;;;;20.90;45.61;100938.94;4972964;28;20486;-76
2022/08/19 01:39:10;;;;;;;21.73;4.83;;;;;;;20.88;45.52;100938.50;4974195;28;20058;-76
2022/08/19 01:41:36;;;;;;;15.70;3.97;;;;;;;20.91;45.42;100942.50;4974034;28;20260;-76
2022/08/19 01:44:04;;;;;;;13.00;3.83;;;;;;;20.91;45.51;100948.06;4972721;28;20397;-75
2022/08/19 01:46:30;;;;;;;16.98;4.18;;;;;;;20.92;45.44;100944.88;4973340;28;20034;-76
2022/08/19 01:48:56;;;;;;;14.68;4.53;;;;;;;20.89;45.61;100948.44;4973508;28;20545;-76
2022/08/19 01:51:22;;;;;;;15.38;4.15;;;;;;;20.81;46.15;100946.75;4973782;28;20023;-75
2022/08/19 01:53:49;;;;;;;17.90;4.38;;;;;;;20.81;45.91;100948.72;4973876;28;20027;-81
2022/08/19 01:56:15;;;;;;;16.85;4.47;;;;;;;20.78;45.96;100942.75;4973570;28;20031;-75
2022/08/19 01:58:50;;;;;;;19.63;4.90;;;;;;;20.68;46.38;100945.38;4973792;28;20019;-75
2022/08/19 02:01:16;;;;;;;15.50;4.13;;;;;;;20.71;46.23;100942.66;4973805;28;20018;-76
2022/08/19 02:03:42;;;;;;;15.52;4.80;;;;;;;20.63;46.65;100940.16;4973729;28;20034;-76
2022/08/19 02:06:08;;;;;;;18.13;3.92;;;;;;;20.56;46.59;100938.09;4972816;28;20379;-75
2022/08/19 02:08:36;;;;;;;16.55;4.65;;;;;;;20.39;47.23;100936.63;4973645;28;20034;-75
2022/08/19 02:11:03;;;;;;;18.48;4.53;;;;;;;20.51;46.99;100932.88;4973635;28;20034;-76
2022/08/19 02:13:30;;;;;;;15.68;4.65;;;;;;;20.48;47.00;100934.44;4973648;28;20027;-78
2022/08/19 02:15:56;;;;;;;17.00;4.07;;;;;;;20.48;47.11;100930.88;4973486;28;20053;-76
2022/08/19 02:18:22;;;;;;;17.92;4.63;;;;;;;20.38;47.55;100937.81;4973599;28;20534;-76
2022/08/19 02:20:47;;;;;;;14.40;3.75;;;;;;;20.53;47.15;100930.50;4972933;28;20118;-75
2022/08/19 02:23:16;;;;;;;16.23;4.32;;;;;;;20.52;47.21;100928.91;4973562;28;20027;-75
2022/08/19 02:25:44;;;;;;;15.43;3.72;;;;;;;20.44;47.50;100930.78;4973225;28;20030;-75
2022/08/19 02:28:11;;;;;;;21.45;3.92;;;;;;;20.43;47.70;100934.72;4973451;28;20030;-76
2022/08/19 02:30:38;;;;;;;17.52;4.35;;;;;;;20.46;47.76;100928.44;4973176;28;20616;-75
2022/08/19 02:33:04;;;;;;;20.73;5.28;;;;;;;20.45;47.88;100920.50;4973560;28;20027;-75
2022/08/19 02:35:30;;;;;;;17.50;5.07;;;;;;;20.42;48.18;100930.34;4972385;28;20118;-75
2022/08/19 02:40:40;;;;;;;11.57;3.70;;;;;;;20.26;48.54;100932.50;4973558;28;20078;-76
2022/08/19 02:43:08;;;;;;;13.15;3.78;;;;;;;20.28;48.36;100929.34;4973369;28;20027;-75
2022/08/19 02:45:40;;;;;;;15.43;3.50;;;;;;;20.03;49.46;100935.31;4971820;28;20027;-75
2022/08/19 02:48:05;;;;;;;14.25;3.38;;;;;;;20.30;48.47;100930.56;4973338;28;20449;-75
2022/08/19 02:50:32;;;;;;;19.27;4.63;;;;;;;19.94;49.63;100941.09;4972745;28;20027;-75
2022/08/19 02:52:57;;;;;;;13.27;3.80;;;;;;;19.80;50.25;100938.13;4973574;28;20482;-75
2022/08/19 02:55:23;;;;;;;18.05;4.00;;;;;;;19.90;49.99;100922.81;4973046;28;20126;-77
2022/08/19 02:57:49;;;;;;;18.40;4.38;;;;;;;20.14;49.12;100925.19;4973796;28;20485;-75
2022/08/19 03:00:15;;;;;;;16.48;3.88;;;;;;;19.81;50.35;100919.50;4976970;28;20038;-75
2022/08/19 03:02:41;;;;;;;13.82;4.07;;;;;;;19.81;50.26;100925.84;4976835;28;20027;-75
2022/08/19 03:05:09;;;;;;;13.68;3.63;;;;;;;19.73;50.66;100928.88;4975982;28;20572;-75
2022/08/19 03:07:35;;;;;;;16.15;3.35;;;;;;;19.62;50.93;100921.16;4976698;28;20023;-76
2022/08/19 03:10:01;;;;;;;10.93;3.25;;;;;;;19.77;50.62;100929.72;4976675;28;20037;-76
2022/08/19 03:12:27;;;;;;;14.25;3.60;;;;;;;19.50;51.82;100924.13;4976708;28;20022;-75
2022/08/19 03:14:52;;;;;;;15.35;4.28;;;;;;;19.55;51.67;100925.75;4976450;28;20062;-75
2022/08/19 03:17:19;;;;;;;19.60;3.83;;;;;;;19.63;51.58;100920.00;4976694;28;20234;-75
2022/08/19 03:19:44;;;;;;;15.00;4.28;;;;;;;19.62;51.70;100920.38;4975962;28;20023;-75
2022/08/19 03:22:10;;;;;;;20.35;5.43;;;;;;;19.53;52.01;100928.91;4976563;28;20050;-75
2022/08/19 03:24:36;;;;;;;15.13;4.07;;;;;;;19.50;52.29;100931.63;4976109;28;20019;-75
2022/08/19 03:27:04;;;;;;;15.60;4.75;;;;;;;19.69;51.76;100931.56;4976227;28;20026;-75
2022/08/19 03:29:31;;;;;;;17.30;4.55;;;;;;;19.53;52.40;100928.09;4976127;28;20061;-76
2022/08/19 03:32:03;;;;;;;14.65;3.42;;;;;;;19.35;52.78;100928.59;4976439;28;20027;-76
2022/08/19 03:34:31;;;;;;;11.52;3.85;;;;;;;19.39;52.87;100934.19;4975419;28;20027;-75
2022/08/19 03:37:02;;;;;;;17.02;4.03;;;;;;;19.45;52.74;100918.88;4976330;28;20034;-75
2022/08/19 03:39:28;;;;;;;15.05;4.75;;;;;;;19.62;52.14;100917.59;4976353;28;20034;-75
2022/08/19 03:41:56;;;;;;;19.75;4.32;;;;;;;19.44;52.80;100917.25;4976191;28;20027;-76
2022/08/19 03:44:22;;;;;;;15.80;4.20;;;;;;;19.70;51.80;100919.31;4975973;28;20023;-75
2022/08/19 03:46:57;;;;;;;18.85;5.00;;;;;;;19.56;52.44;100907.94;4974829;28;20023;-75
2022/08/19 03:49:27;;;;;;;19.50;4.65;;;;;;;19.66;52.04;100907.38;4975440;28;20034;-75
2022/08/19 03:51:53;;;;;;;10.80;3.42;;;;;;;19.59;52.33;100910.84;4976004;28;20058;-75
2022/08/19 03:54:22;;;;;;;12.52;3.83;;;;;;;19.23;53.57;100897.47;4975722;28;20034;-76
2022/08/19 03:56:51;;;;;;;14.85;3.72;;;;;;;19.56;52.57;100905.97;4975910;28;20023;-76
2022/08/19 03:59:27;;;;;;;15.70;3.90;;;;;;;19.38;53.18;100911.22;4990830;28;20037;-76
2022/08/19 04:01:57;;;;;;;16.52;3.72;;;;;;;19.39;53.55;100909.25;4975902;28;20505;-75
2022/08/19 04:04:23;;;;;;;15.02;3.60;;;;;;;19.48;53.21;100904.25;4974856;28;20112;-75
2022/08/19 04:06:51;;;;;;;14.32;3.40;;;;;;;19.56;52.96;100905.97;4975760;28;20030;-76
2022/08/19 04:09:17;;;;;;;14.30;4.22;;;;;;;19.57;53.00;100898.50;4975322;28;20027;-76
2022/08/19 04:11:50;;;;;;;9.20;3.45;;;;;;;19.49;53.32;100899.50;4975634;28;20371;-75
2022/08/19 04:14:19;;;;;;;15.25;3.95;;;;;;;19.65;53.06;100894.69;4975399;28;20105;-75
2022/08/19 04:16:46;;;;;;;13.45;3.22;;;;;;;19.54;53.49;100894.47;4975536;28;20030;-76
2022/08/19 04:19:12;;;;;;;11.48;3.30;;;;;;;19.56;53.21;100902.41;4974715;28;20038;-75
2022/08/19 04:21:38;;;;;;;11.55;3.25;;;;;;;19.64;53.18;100899.41;4975518;28;20363;-75
2022/08/19 04:24:06;;;;;;;12.88;2.70;;;;;;;19.47;53.98;100904.63;4975098;28;20030;-76
2022/08/19 04:26:34;;;;;;;8.88;3.03;;;;;;;19.41;53.77;100913.25;4975367;28;20022;-75
2022/08/19 04:29:03;;;;;;;17.52;3.95;;;;;;;19.38;53.97;100916.75;4973978;28;20030;-75
2022/08/19 04:31:31;;;;;;;14.73;3.65;;;;;;;19.41;53.66;100915.22;4975122;28;20047;-76
2022/08/19 04:33:59;;;;;;;16.17;4.20;;;;;;;19.69;53.04;100926.03;4974415;28;20528;-75
2022/08/19 04:36:32;;;;;;;15.07;3.20;;;;;;;19.60;53.41;100917.19;4975274;28;20389;-76
2022/08/19 04:39:00;;;;;;;10.25;3.00;;;;;;;19.59;53.48;100923.91;4975250;28;20054;-76
2022/08/19 04:44:11;;;;;;;12.65;3.03;;;;;;;19.44;54.11;100920.03;4975132;28;20034;-75
2022/08/19 04:46:37;;;;;;;11.10;2.88;;;;;;;19.16;55.19;100923.06;4975052;28;20026;-76
2022/08/19 04:49:06;;;;;;;15.60;4.18;;;;;;;19.26;54.64;100929.97;4973082;28;20041;-76
2022/08/19 04:51:33;;;;;;;12.50;3.35;;;;;;;19.28;54.49;100925.69;4974661;28;20038;-76
2022/08/19 04:54:00;;;;;;;10.23;2.85;;;;;;;19.22;54.89;100934.66;4974894;28;20039;-76
2022/08/19 04:56:27;;;;;;;12.15;3.72;;;;;;;19.47;54.19;100927.59;4974920;28;20027;-75
2022/08/19 04:58:54;;;;;;;10.85;4.18;;;;;;;19.46;54.06;100927.97;4973478;28;20035;-76
2022/08/19 05:01:28;;;;;;;14.02;3.60;;;;;;;19.73;53.19;100937.19;4974463;28;20047;-81
2022/08/19 05:03:54;;;;;;;11.73;3.60;;;;;;;19.68;53.48;100946.63;4974130;28;20027;-75
2022/08/19 05:06:21;;;;;;;17.90;3.70;;;;;;;19.59;53.78;100955.19;4973334;28;20462;-76
2022/08/19 05:08:47;;;;;;;19.15;3.20;;;;;;;19.58;53.76;100952.78;4974565;28;20035;-76
2022/08/19 05:11:40;;;;;;;11.85;2.95;;;;;;;19.64;53.51;100951.28;4974396;28;20088;-76
2022/08/19 05:14:08;;;;;;;12.10;3.83;;;;;;;19.74;53.16;100961.78;4971338;28;20113;-75
2022/08/19 05:16:33;;;;;;;16.27;3.75;;;;;;;19.71;53.15;100973.59;4974483;28;20085;-76
2022/08/19 05:24:28;;;;;;;14.80;3.47;;;;;;;19.81;52.89;100973.00;4955098;29;20038;-76
2022/08/19 05:26:58;;;;;;;14.00;3.47;;;;;;;19.68;53.08;100975.13;4955061;28;20031;-76
2022/08/19 05:29:25;;;;;;;;;;;;;;;19.60;53.46;100976.19;4956999;28;20042;-76
2022/08/19 05:31:53;;;;;;;18.02;4.05;;;;;;;19.70;52.93;100973.97;4974074;28;20001;-76
2022/08/19 05:34:21;;;;;;;15.13;3.83;;;;;;;19.73;53.04;100978.78;4973519;28;20256;-75
2022/08/19 05:36:49;;;;;;;14.13;2.90;;;;;;;19.89;52.29;100985.00;4974124;28;20023;-76
2022/08/19 05:39:19;;;;;;;20.58;4.68;;;;;;;20.02;52.04;100996.69;4973796;28;20033;-75
2022/08/19 05:41:56;;;;;;;12.40;3.63;;;;;;;20.00;52.08;100999.84;4974179;28;20078;-75
2022/08/19 05:44:27;;;;;;;9.73;3.50;;;;;;;19.97;52.19;101003.38;4988992;28;20375;-76
2022/08/19 05:46:53;;;;;;;15.25;3.58;;;;;;;20.00;52.03;101012.91;4974033;28;20030;-75
2022/08/19 05:49:21;;;;;;;14.13;3.38;;;;;;;20.06;51.84;101014.22;4973051;28;20031;-76
2022/08/19 05:51:48;;;;;;;8.02;2.55;;;;;;;20.18;51.42;101020.38;4973926;28;20028;-76
2022/08/19 05:54:14;;;;;;;16.38;3.45;;;;;;;20.27;51.24;101017.34;4973938;28;20027;-76
2022/08/19 05:56:41;;;;;;;18.70;3.13;;;;;;;20.33;51.26;101015.84;4973894;28;20390;-76
2022/08/19 05:59:10;;;;;;;16.13;2.83;;;;;;;20.36;51.21;101017.06;4973767;28;20123;-76
2022/08/19 06:01:40;;;;;;;16.75;3.15;;;;;;;20.49;50.87;101019.28;4973600;28;20029;-75
2022/08/19 06:04:06;;;;;;;9.65;2.40;;;;;;;20.58;50.61;101019.03;4973188;28;20035;-75
2022/08/19 06:06:34;;;;;;;13.50;3.45;;;;;;;20.76;50.29;101022.03;4973523;28;20035;-75
2022/08/19 06:09:01;;;;;;;13.13;3.20;;;;;;;20.80;50.29;101028.47;4973636;28;20030;-79
2022/08/19 06:11:43;;;;;;;17.27;3.67;;;;;;;20.74;50.23;101032.75;4973620;28;20027;-76
2022/08/19 06:14:13;;;;;;;9.13;2.75;;;;;;;20.76;50.20;101033.16;4973784;28;20482;-76
2022/08/19 06:16:40;;;;;;;37.55;5.55;;;;;;;20.81;50.01;101040.38;4973493;28;20026;-76
2022/08/19 06:19:09;;;;;;;9.32;2.72;;;;;;;20.76;50.20;101038.72;4973029;28;20049;-76
2022/08/19 06:21:37;;;;;;;17.27;3.53;;;;;;;20.85;50.04;101033.66;4973604;28;20097;-75
2022/08/19 06:24:05;;;;;;;8.43;2.10;;;;;;;20.99;49.86;101036.66;4973622;28;20041;-76
2022/08/19 06:26:34;;;;;;;10.80;3.28;;;;;;;21.07;49.86;101037.53;4973324;28;20030;-76
2022/08/19 06:29:00;;;;;;;9.88;2.40;;;;;;;21.02;49.78;101040.66;4973492;28;20043;-75
2022/08/19 06:31:27;;;;;;;12.35;3.33;;;;;;;21.08;49.90;101033.59;4974707;28;20105;-76
2022/08/19 06:33:53;;;;;;;10.02;3.03;;;;;;;21.15;49.22;101033.66;4976931;28;20027;-75
2022/08/19 06:36:31;;;;;;;16.38;3.33;;;;;;;21.06;49.71;101042.31;4976892;28;20027;-75
2022/08/19 06:39:07;;;;;;;12.50;2.63;;;;;;;21.05;49.66;101039.91;4977421;28;20037;-75
2022/08/19 06:41:39;;;;;;;14.30;3.35;;;;;;;20.99;49.48;101042.19;4977373;28;20031;-76
2022/08/19 06:44:05;;;;;;;9.05;2.20;;;;;;;21.02;49.28;101051.78;4975969;28;20122;-76
2022/08/19 06:46:31;;;;;;;12.38;3.58;;;;;;;21.03;49.42;101043.06;4976914;28;20117;-75
2022/08/19 06:48:57;;;;;;;14.80;4.05;;;;;;;21.09;49.43;101056.63;4976521;28;20541;-80
2022/08/19 06:51:24;;;;;;;12.85;2.55;;;;;;;21.31;49.07;101058.50;4977141;28;20111;-76
2022/08/19 06:53:51;;;;;;;17.42;3.55;;;;;;;21.44;48.75;101056.28;4977092;28;20058;-75
2022/08/19 06:56:20;;;;;;;15.95;2.95;;;;;;;21.50;48.93;101054.78;4976781;28;20031;-76
2022/08/19 06:58:48;;;;;;;13.15;3.30;;;;;;;21.66;48.58;101054.56;4975727;28;20397;-76
2022/08/19 07:01:13;;;;;;;8.02;2.72;;;;;;;21.80;48.58;101054.72;4976822;28;20078;-75
2022/08/19 07:03:39;;;;;;;12.00;2.90;;;;;;;21.91;48.38;101052.03;4976364;28;20502;-75
2022/08/19 07:06:07;;;;;;;4.97;1.95;;;;;;;21.88;48.79;101048.03;4976577;28;20035;-75
2022/08/19 07:08:35;;;;;;;16.33;3.40;;;;;;;22.09;48.36;101047.47;4976765;28;20035;-75
2022/08/19 07:11:00;;;;;;;24.92;4.30;;;;;;;22.07;48.18;101056.19;4976815;28;20604;-75
2022/08/19 07:13:26;;;;;;;11.25;2.40;;;;;;;22.14;47.88;101050.72;4976753;28;20026;-77
2022/08/19 07:15:52;;;;;;;8.73;1.88;;;;;;;22.10;48.04;101044.31;4976547;28;20062;-75
2022/08/19 07:18:20;;;;;;;10.25;2.65;;;;;;;22.25;47.93;101034.09;4976093;28;20031;-80
2022/08/19 07:20:46;;;;;;;11.10;2.17;;;;;;;22.28;48.17;101046.44;4976713;28;20037;-76
2022/08/19 07:23:11;;;;;;;12.40;2.78;;;;;;;22.26;48.02;101051.59;4976609;28;20031;-75
2022/08/19 07:25:37;;;;;;;12.88;2.50;;;;;;;22.33;48.01;101051.66;4975885;28;20148;-75
2022/08/19 07:28:04;;;;;;;14.43;3.72;;;;;;;22.63;47.19;101046.69;4976492;28;20125;-75
2022/08/19 07:30:30;;;;;;;9.52;2.20;;;;;;;22.66;46.69;101059.84;4976291;28;20047;-75
2022/08/19 07:32:56;;;;;;;9.25;1.88;;;;;;;22.47;47.56;101056.53;4975738;28;20398;-75
2022/08/19 07:35:23;;;;;;;11.45;2.35;;;;;;;22.61;47.13;101063.00;4976001;28;20031;-75
2022/08/19 07:37:49;;;;;;;14.00;2.75;;;;;;;22.63;47.38;101062.59;4975035;28;20469;-75
2022/08/19 07:40:15;;;;;;;9.55;2.17;;;;;;;22.71;47.07;101067.84;4976323;28;20035;-75
2022/08/19 07:42:42;;;;;;;11.45;2.00;;;;;;;22.63;46.76;101068.97;4975557;28;20089;-75
2022/08/19 07:45:08;;;;;;;5.47;1.40;;;;;;;22.57;46.94;101064.94;4975339;28;20122;-75
2022/08/19 07:47:33;;;;;;;5.68;1.48;;;;;;;22.73;46.40;101069.44;4975249;28;20039;-79
2022/08/19 07:49:59;;;;;;;7.20;1.75;;;;;;;22.93;45.96;101066.00;4976095;28;20446;-76
2022/08/19 07:52:24;;;;;;;12.55;2.50;;;;;;;23.11;45.52;101063.31;4976022;28;20027;-75
2022/08/19 07:54:50;;;;;;;5.97;2.35;;;;;;;23.22;45.50;101050.25;4975799;28;20034;-81
2022/08/19 07:57:16;;;;;;;5.07;1.40;;;;;;;23.21;45.37;101059.78;4975431;28;20437;-75
2022/08/19 07:59:42;;;;;;;4.60;1.42;;;;;;;23.23;45.44;101064.97;4976018;28;20058;-76
2022/08/19 08:02:09;;;;;;;5.05;1.35;;;;;;;23.20;45.38;101080.50;4975071;28;20082;-75
2022/08/19 08:10:06;;;;;;;8.90;1.58;;;;;;;23.67;44.78;101086.28;4976106;28;20119;-75
2022/08/19 08:12:41;;;;;;;5.65;1.63;;;;;;;23.68;44.36;101093.47;4975117;28;20034;-77
2022/08/19 08:15:10;;;;;;;7.82;3.05;;;;;;;23.92;43.79;101091.91;4975785;28;20025;-75
2022/08/19 08:17:36;;;;;;;;;;;;;;;23.50;44.40;101093.34;4975492;28;20050;-76
2022/08/19 08:20:06;;;;;;;7.30;1.85;;;;;;;23.95;43.57;101096.69;4975389;28;19972;-76
2022/08/19 08:25:20;;;;;;;5.55;1.60;;;;;;;23.44;44.00;101092.16;4975773;28;20034;-75
2022/08/19 08:27:47;;;;;;;6.38;1.92;;;;;;;23.67;43.42;101098.25;4975156;28;20026;-74
2022/08/19 08:30:21;;;;;;;4.72;1.42;;;;;;;23.65;43.96;101086.66;4974791;28;20039;-75
2022/08/19 08:32:48;;;;;;;7.68;1.98;;;;;;;24.03;43.30;101089.94;4975084;28;20381;-75
2022/08/19 08:35:17;;;;;;;7.18;2.53;;;;;;;23.93;43.38;101091.53;4975059;28;20154;-77
2022/08/19 08:37:44;;;;;;;4.40;1.40;;;;;;;23.60;43.98;101095.44;4975277;28;20482;-74
2022/08/19 08:40:38;;;;;;;8.70;2.08;;;;;;;23.95;42.60;101099.50;4974784;28;20046;-74
2022/08/19 08:43:14;;;;;;;8.80;2.25;;;;;;;23.98;42.67;101098.72;4950632;29;20042;-74
2022/08/19 08:45:59;;;;;;;7.07;2.83;;;;;;;23.82;42.91;101101.88;4955787;28;20103;-74
2022/08/19 08:48:34;;;;;;;9.73;2.58;;;;;;;24.12;42.46;101095.94;4960174;28;20031;-75
2022/08/19 08:51:03;;;;;;;9.57;2.53;;;;;;;24.03;42.88;101103.88;4974498;28;20034;-75
2022/08/19 08:53:31;;;;;;;5.95;2.03;;;;;;;24.13;42.92;101099.53;4974928;28;20363;-77
2022/08/19 08:56:00;;;;;;;10.90;2.70;;;;;;;24.48;42.43;101101.56;4973780;28;20035;-76
2022/08/19 08:58:42;;;;;;;7.18;2.42;;;;;;;24.14;43.28;101096.34;4974552;28;20414;-75
2022/08/19 09:01:11;;;;;;;7.15;2.08;;;;;;;24.26;42.66;101100.75;4973821;28;20031;-75
2022/08/19 09:03:39;;;;;;;7.00;2.60;;;;;;;24.59;41.92;101094.78;4974595;28;20023;-74
2022/08/19 09:06:22;;;;;;;11.93;2.50;;;;;;;24.72;42.42;101095.19;4974728;28;20478;-76
2022/08/19 09:08:59;;;;;;;16.63;3.08;;;;;;;24.93;41.71;101080.34;4973906;28;20038;-76
2022/08/19 09:11:36;;;;;;;7.10;2.67;;;;;;;25.01;41.61;101095.09;4969280;28;20372;-83
2022/08/19 09:14:32;;;;;;;9.45;2.30;;;;;;;25.31;41.01;101091.84;4977090;28;20093;-76
2022/08/19 09:16:59;;;;;;;5.20;2.05;;;;;;;25.28;41.72;101087.88;4981311;28;20037;-74
2022/08/19 09:19:24;;;;;;;9.90;2.95;;;;;;;25.66;40.42;101074.91;4981304;28;20022;-73
2022/08/19 09:21:50;;;;;;;6.72;2.30;;;;;;;25.70;40.38;101080.50;4986705;28;20484;-74
2022/08/19 09:24:16;;;;;;;6.45;1.98;;;;;;;25.70;39.76;101083.28;4984557;28;20027;-72
2022/08/19 09:26:43;;;;;;;6.78;2.22;;;;;;;25.70;39.66;101086.09;4977758;28;20081;-74
2022/08/19 09:29:10;;;;;;;8.43;1.85;;;;;;;25.42;39.72;101087.03;4981026;28;20397;-75
2022/08/19 09:31:38;;;;;;;10.20;2.45;;;;;;;25.26;39.18;101089.50;4980892;28;20409;-74
2022/08/19 09:34:04;;;;;;;33.95;5.60;;;;;;;25.46;39.41;101085.78;4979566;28;20058;-74
2022/08/19 09:36:35;;;;;;;5.25;1.90;;;;;;;25.28;39.50;101095.47;4982006;28;20144;-74
2022/08/19 09:39:05;;;;;;;8.20;1.98;;;;;;;25.73;39.03;101091.69;4982405;28;20030;-75
2022/08/19 09:41:31;;;;;;;14.40;2.58;;;;;;;25.73;39.15;101083.28;4984254;28;20396;-74
2022/08/19 09:43:58;;;;;;;35.47;4.75;;;;;;;25.96;38.40;101082.75;4975444;28;20035;-74
2022/08/19 09:46:27;;;;;;;6.68;1.63;;;;;;;25.51;39.32;101084.56;4980823;28;20035;-76
2022/08/19 09:48:54;;;;;;;4.22;1.48;;;;;;;25.79;38.67;101083.66;4982462;28;20027;-74
2022/08/19 09:51:23;;;;;;;5.93;1.60;;;;;;;25.70;38.49;101077.69;4984124;28;20022;-74
2022/08/19 09:53:50;;;;;;;3.38;1.23;;;;;;;25.56;38.00;101072.19;4981717;28;20073;-74
2022/08/19 09:56:18;;;;;;;9.52;2.00;;;;;;;25.40;38.36;101093.03;4980548;28;20102;-73
2022/08/19 09:58:44;;;;;;;5.07;1.77;;;;;;;25.57;38.00;101082.94;4981138;28;20490;-73
2022/08/19 10:01:19;;;;;;;8.23;1.67;;;;;;;25.59;37.88;101086.13;4980649;28;20386;-74
2022/08/19 10:03:48;;;;;;;6.95;1.88;;;;;;;25.60;38.16;101084.13;4980801;28;20057;-74
2022/08/19 10:06:14;;;;;;;4.22;1.20;;;;;;;25.59;38.35;101088.13;4970609;28;20386;-75
2022/08/19 10:08:41;;;;;;;5.13;1.20;;;;;;;25.32;38.63;101083.06;4973482;28;20029;-82
2022/08/19 10:11:08;;;;;;;6.18;1.40;;;;;;;25.77;38.21;101082.47;4973776;28;20090;-74
2022/08/19 10:13:36;;;;;;;4.07;1.30;;;;;;;25.57;38.36;101093.34;4973757;28;20033;-74
2022/08/19 10:16:22;;;;;;;7.72;1.95;;;;;;;25.60;37.82;101072.94;4973254;28;20027;-74
2022/08/19 10:18:49;;;;;;;7.03;1.65;;;;;;;25.76;37.61;101078.88;4972642;28;20541;-79
2022/08/19 10:21:19;;;;;;;5.25;1.02;;;;;;;25.88;37.67;101072.00;4976044;28;20023;-74
2022/08/19 10:23:48;;;;;;;3.33;1.00;;;;;;;25.56;37.92;101069.38;4982426;28;20069;-74
2022/08/19 10:26:17;;;;;;;3.17;1.25;;;;;;;25.66;37.90;101069.31;4980810;28;20023;-74
2022/08/19 10:28:43;;;;;;;3.95;0.90;;;;;;;25.19;38.62;101081.91;4981913;28;20030;-75
2022/08/19 10:31:14;;;;;;;1.35;0.70;;;;;;;25.63;37.48;101074.94;4988068;28;20073;-75
2022/08/19 10:33:40;;;;;;;4.60;1.00;;;;;;;25.24;38.87;101083.47;4964322;28;20027;-76
2022/08/19 10:36:17;;;;;;;3.60;1.73;;;;;;;25.34;38.74;101077.88;4957056;28;20078;-78
2022/08/19 10:38:45;;;;;;;2.78;0.85;;;;;;;25.36;38.92;101085.84;4957445;28;20085;-76
2022/08/19 10:41:16;;;;;;;7.28;1.88;;;;;;;25.27;39.32;101082.69;4957690;28;20027;-74
2022/08/19 10:43:45;;;;;;;5.05;1.73;;;;;;;25.21;39.83;101082.31;4971058;28;20448;-83
2022/08/19 10:46:15;;;;;;;9.40;1.98;;;;;;;25.26;40.04;101093.09;4972830;28;20034;-73
2022/08/19 10:48:42;;;;;;;5.40;1.27;;;;;;;25.61;39.57;101089.31;4973370;28;20417;-74
2022/08/19 10:53:52;;;;;;;8.55;1.40;;;;;;;25.95;39.90;101086.75;4973373;28;20038;-74
2022/08/19 10:59:04;;;;;;;3.47;1.30;;;;;;;26.46;38.39;101065.59;4973512;28;20117;-72
2022/08/19 11:01:32;;;;;;;3.28;1.08;;;;;;;26.40;37.94;101070.03;4972677;28;20097;-72
2022/08/19 11:04:00;;;;;;;5.13;1.90;;;;;;;26.30;37.38;101073.72;4973268;28;20536;-73
2022/08/19 11:06:26;;;;;;;10.63;1.65;;;;;;;26.99;36.89;101064.25;4973339;28;20031;-74
2022/08/19 11:08:55;;;;;;;3.30;1.25;;;;;;;26.95;36.19;101066.28;4972993;28;20045;-75
2022/08/19 11:11:39;;;;;;;3.28;1.33;;;;;;;26.96;36.26;101072.69;4973208;28;20042;-74
2022/08/19 11:14:06;;;;;;;5.57;1.25;;;;;;;26.28;37.03;101078.91;4973234;28;20030;-74
2022/08/19 11:16:32;;;;;;;5.75;1.52;;;;;;;26.46;37.52;101106.81;4972625;28;20023;-74
2022/08/19 11:18:58;;;;;;;9.15;1.80;;;;;;;26.74;37.52;101100.94;4975063;28;20027;-73
2022/08/19 11:21:30;;;;;;;4.68;1.52;;;;;;;26.68;37.89;101083.00;4976347;28;20039;-74
2022/08/19 11:23:58;;;;;;;9.02;2.83;;;;;;;26.37;38.17;101082.03;4976626;28;20034;-75
2022/08/19 11:26:24;;;;;;;7.15;1.48;;;;;;;26.74;37.49;101074.91;4976548;28;20023;-74
2022/08/19 11:28:53;;;;;;;4.85;1.70;;;;;;;26.53;37.89;101073.13;4963778;28;20134;-74
2022/08/19 11:31:20;;;;;;;15.15;3.58;;;;;;;26.35;37.32;101076.06;4960074;28;20073;-75
2022/08/19 11:33:52;;;;;;;7.63;2.00;;;;;;;26.74;36.58;101086.13;4960052;28;20458;-73
2022/08/19 11:36:20;;;;;;;7.82;2.33;;;;;;;26.38;35.94;101080.84;4961063;28;20015;-73
2022/08/19 11:38:48;;;;;;;8.23;2.13;;;;;;;26.31;35.92;101083.69;4959611;28;20581;-73
2022/08/19 11:41:17;;;;;;;8.80;2.25;;;;;;;26.45;35.83;101088.41;4960336;28;20125;-74
2022/08/19 11:43:43;;;;;;;8.45;2.35;;;;;;;26.68;35.89;101096.22;4961057;28;20031;-74
2022/08/19 11:46:12;;;;;;;10.77;2.10;;;;;;;26.59;35.99;101082.66;4959141;28;20030;-75
2022/08/19 11:48:39;;;;;;;7.45;2.03;;;;;;;26.76;35.98;101097.75;4959904;28;20043;-77
2022/08/19 11:51:08;;;;;;;25.77;4.10;;;;;;;26.73;36.08;101090.94;4959177;28;20035;-73